sensor_id;sensor_type;location;lat;lon;timestamp;pressure;altitude;pressure_sealevel;temperature;humidity
39309;BME280;26019;47.510;19.122;2023-12-04T00:05:50;101135.41;;;-3.45;100.00
39309;BME280;26019;47.510;19.122;2023-12-04T00:15:57;101147.72;;;-3.63;100.00
39309;BME280;26019;47.510;19.122;2023-12-04T00:26:00;101148.13;;;-3.70;100.00
39309;BME280;26019;47.510;19.122;2023-12-04T00:36:03;101137.72;;;-3.88;100.00
39309;BME280;26019;47.510;19.122;2023-12-04T00:46:07;101134.94;;;-4.05;100.00
39309;BME280;26019;47.510;19.122;2023-12-04T00:56:09;101157.34;;;-4.10;100.00
39309;BME280;26019;47.510;19.122;2023-12-04T01:06:20;101147.06;;;-4.13;100.00
39309;BME280;26019;47.510;19.122;2023-12-04T01:16:24;101132.63;;;-4.27;100.00
39309;BME280;26019;47.510;19.122;2023-12-04T01:26:27;101137.47;;;-4.30;100.00
39309;BME280;26019;47.510;19.122;2023-12-04T01:36:29;101150.66;;;-4.35;100.00
39309;BME280;26019;47.510;19.122;2023-12-04T01:46:31;101154.47;;;-4.65;100.00
39309;BME280;26019;47.510;19.122;2023-12-04T01:56:34;101155.56;;;-4.61;100.00
39309;BME280;26019;47.510;19.122;2023-12-04T02:06:37;101162.66;;;-4.44;100.00
39309;BME280;26019;47.510;19.122;2023-12-04T02:28:18;101170.44;;;-4.41;100.00
39309;BME280;26019;47.510;19.122;2023-12-04T02:38:22;101158.66;;;-4.66;100.00
39309;BME280;26019;47.510;19.122;2023-12-04T02:48:28;101165.16;;;-4.44;100.00
39309;BME280;26019;47.510;19.122;2023-12-04T02:58:31;101181.69;;;-4.61;100.00
39309;BME280;26019;47.510;19.122;2023-12-04T03:08:36;101177.66;;;-4.71;100.00
39309;BME280;26019;47.510;19.122;2023-12-04T03:18:38;101175.34;;;-4.68;100.00
39309;BME280;26019;47.510;19.122;2023-12-04T03:28:40;101174.56;;;-4.78;100.00
39309;BME280;26019;47.510;19.122;2023-12-04T03:38:47;101183.03;;;-4.78;100.00
39309;BME280;26019;47.510;19.122;2023-12-04T03:48:48;101191.69;;;-4.86;100.00
39309;BME280;26019;47.510;19.122;2023-12-04T03:58:50;101192.38;;;-5.01;100.00
39309;BME280;26019;47.510;19.122;2023-12-04T04:08:52;101180.63;;;-4.88;100.00
39309;BME280;26019;47.510;19.122;2023-12-04T04:18:54;101172.31;;;-5.11;100.00
39309;BME280;26019;47.510;19.122;2023-12-04T04:28:59;101172.66;;;-5.30;100.00
39309;BME280;26019;47.510;19.122;2023-12-04T04:39:02;101162.47;;;-5.32;100.00
39309;BME280;26019;47.510;19.122;2023-12-04T04:49:04;101187.84;;;-5.41;100.00
39309;BME280;26019;47.510;19.122;2023-12-04T04:59:09;101180.63;;;-5.48;100.00
39309;BME280;26019;47.510;19.122;2023-12-04T05:09:11;101200.38;;;-5.30;100.00
39309;BME280;26019;47.510;19.122;2023-12-04T05:19:12;101194.66;;;-5.40;100.00
39309;BME280;26019;47.510;19.122;2023-12-04T05:29:14;101193.94;;;-5.61;100.00
39309;BME280;26019;47.510;19.122;2023-12-04T05:39:17;101192.03;;;-5.29;100.00
39309;BME280;26019;47.510;19.122;2023-12-04T05:49:20;101196.09;;;-5.19;100.00
39309;BME280;26019;47.510;19.122;2023-12-04T05:59:27;101201.25;;;-5.30;100.00
39309;BME280;26019;47.510;19.122;2023-12-04T06:09:31;101204.72;;;-5.28;100.00
39309;BME280;26019;47.510;19.122;2023-12-04T06:19:32;101211.56;;;-5.15;100.00
39309;BME280;26019;47.510;19.122;2023-12-04T06:29:34;101209.47;;;-5.08;100.00
39309;BME280;26019;47.510;19.122;2023-12-04T06:39:38;101222.94;;;-4.96;100.00
39309;BME280;26019;47.510;19.122;2023-12-04T06:49:41;101235.66;;;-5.06;100.00
39309;BME280;26019;47.510;19.122;2023-12-04T06:59:44;101234.25;;;-5.03;100.00
39309;BME280;26019;47.510;19.122;2023-12-04T07:09:46;101241.47;;;-4.96;100.00
39309;BME280;26019;47.510;19.122;2023-12-04T07:19:48;101242.34;;;-4.71;100.00
39309;BME280;26019;47.510;19.122;2023-12-04T07:29:50;101244.06;;;-4.09;100.00
39309;BME280;26019;47.510;19.122;2023-12-04T07:39:52;101250.50;;;-2.71;100.00
39309;BME280;26019;47.510;19.122;2023-12-04T07:49:54;101251.97;;;-1.32;100.00
39309;BME280;26019;47.510;19.122;2023-12-04T07:59:56;101256.22;;;-0.86;100.00
39309;BME280;26019;47.510;19.122;2023-12-04T08:09:58;101254.69;;;-0.99;100.00
39309;BME280;26019;47.510;19.122;2023-12-04T08:20:01;101252.59;;;0.91;100.00
39309;BME280;26019;47.510;19.122;2023-12-04T08:30:07;101263.19;;;2.72;70.03
39309;BME280;26019;47.510;19.122;2023-12-04T08:40:09;101266.06;;;1.24;71.23
39309;BME280;26019;47.510;19.122;2023-12-04T08:50:11;101260.19;;;1.25;78.60
39309;BME280;26019;47.510;19.122;2023-12-04T09:00:13;101249.53;;;4.55;62.60
39309;BME280;26019;47.510;19.122;2023-12-04T09:10:15;101258.59;;;2.84;62.00
39309;BME280;26019;47.510;19.122;2023-12-04T09:20:36;101264.38;;;0.88;78.88
39309;BME280;26019;47.510;19.122;2023-12-04T09:30:38;101256.50;;;3.62;65.32
39309;BME280;26019;47.510;19.122;2023-12-04T09:40:40;101240.97;;;5.96;52.16
39309;BME280;26019;47.510;19.122;2023-12-04T09:50:43;101222.59;;;6.80;45.54
39309;BME280;26019;47.510;19.122;2023-12-04T10:00:46;101206.59;;;6.55;44.36
39309;BME280;26019;47.510;19.122;2023-12-04T10:10:48;101190.94;;;7.59;42.40
39309;BME280;26019;47.510;19.122;2023-12-04T10:20:54;101159.75;;;8.39;41.62
39309;BME280;26019;47.510;19.122;2023-12-04T10:30:58;101156.94;;;7.76;40.47
39309;BME280;26019;47.510;19.122;2023-12-04T10:41:12;101139.75;;;8.22;41.46
39309;BME280;26019;47.510;19.122;2023-12-04T10:51:16;101142.72;;;6.69;43.35
39309;BME280;26019;47.510;19.122;2023-12-04T11:01:19;101112.78;;;8.02;41.74
39309;BME280;26019;47.510;19.122;2023-12-04T11:11:29;101103.47;;;7.59;41.83
39309;BME280;26019;47.510;19.122;2023-12-04T11:21:33;101100.06;;;9.31;38.06
39309;BME280;26019;47.510;19.122;2023-12-04T11:31:45;101086.91;;;7.92;40.18
39309;BME280;26019;47.510;19.122;2023-12-04T11:41:47;101065.22;;;8.32;39.38
39309;BME280;26019;47.510;19.122;2023-12-04T11:51:49;101056.13;;;9.22;38.64
39309;BME280;26019;47.510;19.122;2023-12-04T12:01:58;101055.25;;;7.49;41.60
39309;BME280;26019;47.510;19.122;2023-12-04T12:12:01;101032.13;;;9.29;37.73
39309;BME280;26019;47.510;19.122;2023-12-04T12:22:03;101024.00;;;7.27;41.33
39309;BME280;26019;47.510;19.122;2023-12-04T12:32:06;100995.44;;;4.62;47.68
39309;BME280;26019;47.510;19.122;2023-12-04T12:42:08;100973.81;;;4.83;48.56
39309;BME280;26019;47.510;19.122;2023-12-04T12:52:10;100974.47;;;5.40;46.49
39309;BME280;26019;47.510;19.122;2023-12-04T13:02:13;100979.44;;;3.33;52.86
39309;BME280;26019;47.510;19.122;2023-12-04T13:12:15;100977.91;;;3.13;54.49
39309;BME280;26019;47.510;19.122;2023-12-04T13:22:19;100967.81;;;2.45;57.20
39309;BME280;26019;47.510;19.122;2023-12-04T13:32:20;100964.63;;;2.28;61.76
39309;BME280;26019;47.510;19.122;2023-12-04T13:42:24;100946.84;;;1.86;66.39
39309;BME280;26019;47.510;19.122;2023-12-04T13:52:44;100946.16;;;1.90;70.04
39309;BME280;26019;47.510;19.122;2023-12-04T14:02:47;100937.84;;;1.30;75.82
39309;BME280;26019;47.510;19.122;2023-12-04T14:12:49;100941.00;;;0.85;81.27
39309;BME280;26019;47.510;19.122;2023-12-04T14:22:51;100946.50;;;0.75;83.12
39309;BME280;26019;47.510;19.122;2023-12-04T14:32:58;100916.72;;;0.92;87.36
39309;BME280;26019;47.510;19.122;2023-12-04T14:43:01;100908.81;;;0.66;85.67
39309;BME280;26019;47.510;19.122;2023-12-04T14:53:03;100903.72;;;0.47;88.39
39309;BME280;26019;47.510;19.122;2023-12-04T15:03:21;100910.66;;;0.31;90.09
39309;BME280;26019;47.510;19.122;2023-12-04T15:13:41;100908.00;;;0.10;91.33
39309;BME280;26019;47.510;19.122;2023-12-04T15:23:57;100902.66;;;0.23;96.19
39309;BME280;26019;47.510;19.122;2023-12-04T15:34:06;100886.66;;;0.06;95.06
39309;BME280;26019;47.510;19.122;2023-12-04T15:44:10;100888.78;;;-0.03;98.10
39309;BME280;26019;47.510;19.122;2023-12-04T15:54:13;100888.03;;;-0.01;100.00
39309;BME280;26019;47.510;19.122;2023-12-04T16:04:14;100881.16;;;-0.03;100.00
39309;BME280;26019;47.510;19.122;2023-12-04T16:14:16;100885.66;;;-0.34;100.00
39309;BME280;26019;47.510;19.122;2023-12-04T16:24:18;100866.78;;;-0.57;100.00
39309;BME280;26019;47.510;19.122;2023-12-04T16:34:23;100862.19;;;-0.64;100.00
39309;BME280;26019;47.510;19.122;2023-12-04T16:44:25;100866.13;;;-0.71;100.00
39309;BME280;26019;47.510;19.122;2023-12-04T16:54:27;100854.38;;;-0.69;100.00
39309;BME280;26019;47.510;19.122;2023-12-04T17:04:29;100836.88;;;-0.81;100.00
39309;BME280;26019;47.510;19.122;2023-12-04T17:14:42;100835.00;;;-0.85;100.00
39309;BME280;26019;47.510;19.122;2023-12-04T17:24:44;100828.16;;;-1.04;100.00
39309;BME280;26019;47.510;19.122;2023-12-04T17:34:47;100821.44;;;-1.20;100.00
39309;BME280;26019;47.510;19.122;2023-12-04T17:44:51;100825.94;;;-1.14;100.00
39309;BME280;26019;47.510;19.122;2023-12-04T17:54:55;100807.00;;;-1.04;100.00
39309;BME280;26019;47.510;19.122;2023-12-04T18:04:56;100816.22;;;-1.23;100.00
39309;BME280;26019;47.510;19.122;2023-12-04T18:14:58;100783.34;;;-1.22;100.00
39309;BME280;26019;47.510;19.122;2023-12-04T18:25:00;100806.00;;;-1.41;100.00
39309;BME280;26019;47.510;19.122;2023-12-04T18:35:07;100790.91;;;-1.40;100.00
39309;BME280;26019;47.510;19.122;2023-12-04T18:45:10;100757.47;;;-1.49;100.00
39309;BME280;26019;47.510;19.122;2023-12-04T18:55:18;100741.47;;;-1.65;100.00
39309;BME280;26019;47.510;19.122;2023-12-04T19:05:20;100753.59;;;-1.75;100.00
39309;BME280;26019;47.510;19.122;2023-12-04T19:15:22;100744.94;;;-1.46;100.00
39309;BME280;26019;47.510;19.122;2023-12-04T19:25:26;100717.22;;;-1.59;100.00
39309;BME280;26019;47.510;19.122;2023-12-04T19:35:50;100741.16;;;-1.54;100.00
39309;BME280;26019;47.510;19.122;2023-12-04T19:45:52;100721.34;;;-1.61;100.00
39309;BME280;26019;47.510;19.122;2023-12-04T19:55:55;100700.38;;;-1.59;100.00
39309;BME280;26019;47.510;19.122;2023-12-04T20:05:57;100681.59;;;-1.62;100.00
39309;BME280;26019;47.510;19.122;2023-12-04T20:16:01;100694.16;;;-1.82;100.00
39309;BME280;26019;47.510;19.122;2023-12-04T20:26:03;100685.81;;;-1.80;100.00
39309;BME280;26019;47.510;19.122;2023-12-04T20:36:11;100682.97;;;-1.69;100.00
39309;BME280;26019;47.510;19.122;2023-12-04T20:46:13;100662.63;;;-1.71;100.00
39309;BME280;26019;47.510;19.122;2023-12-04T20:56:21;100658.09;;;-1.76;100.00
39309;BME280;26019;47.510;19.122;2023-12-04T21:06:24;100643.47;;;-1.82;100.00
39309;BME280;26019;47.510;19.122;2023-12-04T21:16:27;100639.25;;;-1.82;100.00
39309;BME280;26019;47.510;19.122;2023-12-04T21:26:29;100621.09;;;-1.91;100.00
39309;BME280;26019;47.510;19.122;2023-12-04T21:36:30;100622.09;;;-1.87;100.00
39309;BME280;26019;47.510;19.122;2023-12-04T21:46:35;100602.44;;;-1.75;100.00
39309;BME280;26019;47.510;19.122;2023-12-04T21:56:37;100608.94;;;-1.80;100.00
39309;BME280;26019;47.510;19.122;2023-12-04T22:06:38;100587.78;;;-1.99;100.00
39309;BME280;26019;47.510;19.122;2023-12-04T22:16:41;100559.94;;;-1.99;100.00
39309;BME280;26019;47.510;19.122;2023-12-04T22:26:43;100554.94;;;-1.97;100.00
39309;BME280;26019;47.510;19.122;2023-12-04T22:36:47;100538.06;;;-1.97;100.00
39309;BME280;26019;47.510;19.122;2023-12-04T22:46:52;100534.03;;;-1.93;100.00
39309;BME280;26019;47.510;19.122;2023-12-04T22:56:55;100515.41;;;-1.93;100.00
39309;BME280;26019;47.510;19.122;2023-12-04T23:06:57;100503.13;;;-1.86;100.00
39309;BME280;26019;47.510;19.122;2023-12-04T23:16:59;100509.63;;;-1.73;100.00
39309;BME280;26019;47.510;19.122;2023-12-04T23:27:01;100504.97;;;-1.82;100.00
39309;BME280;26019;47.510;19.122;2023-12-04T23:37:03;100492.97;;;-1.68;100.00
39309;BME280;26019;47.510;19.122;2023-12-04T23:47:05;100475.34;;;-1.65;100.00
39309;BME280;26019;47.510;19.122;2023-12-04T23:57:07;100468.47;;;-1.49;100.00
